createdAt,value
2023-08-04T00:02:21.976Z,17.30
2023-08-04T00:04:48.999Z,17.30
2023-08-04T00:07:16.005Z,15.70
2023-08-04T00:09:43.088Z,16.30
2023-08-04T00:12:27.987Z,16.80
2023-08-04T00:14:54.959Z,15.60
2023-08-04T00:17:22.049Z,15.50
2023-08-04T00:19:49.051Z,15.50
2023-08-04T00:22:16.054Z,16.80
2023-08-04T00:24:42.992Z,16.40
2023-08-04T00:27:10.154Z,15.40
2023-08-04T00:29:37.168Z,16.00
2023-08-04T00:32:04.798Z,15.40
2023-08-04T00:34:31.811Z,15.30
2023-08-04T00:36:58.750Z,15.40
2023-08-04T00:39:27.827Z,16.60
2023-08-04T00:41:54.786Z,15.30
2023-08-04T00:44:21.808Z,15.20
2023-08-04T00:46:49.302Z,15.40
2023-08-04T00:49:19.495Z,17.00
2023-08-04T00:51:48.337Z,15.40
2023-08-04T00:54:15.672Z,15.50
2023-08-04T00:56:42.950Z,16.70
2023-08-04T00:59:09.982Z,15.20
2023-08-04T01:01:39.870Z,16.20
2023-08-04T01:04:07.210Z,15.20
2023-08-04T01:06:44.754Z,15.20
2023-08-04T01:09:52.685Z,15.10
2023-08-04T01:12:45.745Z,15.10
2023-08-04T01:15:15.395Z,15.10
2023-08-04T01:17:42.703Z,16.50
2023-08-04T01:20:10.582Z,15.10
2023-08-04T01:22:37.784Z,15.10
2023-08-04T01:25:05.691Z,15.10
2023-08-04T01:27:44.198Z,15.10
2023-08-04T01:30:19.483Z,16.80
2023-08-04T01:32:48.361Z,15.10
2023-08-04T01:35:19.501Z,16.50
2023-08-04T01:37:46.665Z,15.20
2023-08-04T01:40:15.356Z,15.20
2023-08-04T01:42:43.171Z,15.20
2023-08-04T01:45:10.861Z,15.20
2023-08-04T01:47:39.954Z,15.30
2023-08-04T01:50:10.752Z,17.30
2023-08-04T01:52:38.476Z,15.40
2023-08-04T01:55:06.603Z,15.40
2023-08-04T01:57:33.721Z,15.40
2023-08-04T02:00:00.863Z,15.50
2023-08-04T02:02:28.509Z,15.50
2023-08-04T02:04:59.001Z,15.60
2023-08-04T02:07:26.054Z,16.70
2023-08-04T02:09:53.972Z,17.30
2023-08-04T02:12:21.275Z,16.90
2023-08-04T02:14:48.440Z,16.40
2023-08-04T02:17:17.294Z,15.70
2023-08-04T02:19:44.354Z,15.60
2023-08-04T02:22:11.552Z,15.70
2023-08-04T02:24:38.540Z,16.90
2023-08-04T02:27:06.955Z,16.90
2023-08-04T02:29:33.930Z,15.70
2023-08-04T02:32:00.908Z,15.70
2023-08-04T02:34:27.993Z,15.60
2023-08-04T02:36:56.366Z,16.30
2023-08-04T02:39:23.338Z,16.40
2023-08-04T02:41:50.388Z,15.50
2023-08-04T02:44:17.484Z,17.10
2023-08-04T02:46:46.768Z,15.50
2023-08-04T02:49:13.931Z,15.50
2023-08-04T02:51:41.083Z,15.50
2023-08-04T02:54:11.109Z,15.50
2023-08-04T02:56:38.346Z,15.50
2023-08-04T02:59:05.362Z,15.50
2023-08-04T03:01:32.576Z,15.50
2023-08-04T03:03:59.679Z,15.40
2023-08-04T03:06:26.774Z,14.80
2023-08-04T03:08:53.855Z,15.40
2023-08-04T03:11:20.944Z,15.80
2023-08-04T03:13:47.910Z,17.30
2023-08-04T03:16:15.034Z,15.60
2023-08-04T03:18:42.190Z,15.40
2023-08-04T03:21:09.291Z,17.40
2023-08-04T03:23:36.385Z,15.50
2023-08-04T03:26:03.473Z,15.50
2023-08-04T03:28:30.595Z,15.90
2023-08-04T03:30:57.618Z,15.50
2023-08-04T03:33:25.077Z,15.50
2023-08-04T03:35:52.176Z,16.80
2023-08-04T03:38:19.249Z,15.50
2023-08-04T03:40:46.543Z,16.10
2023-08-04T03:43:13.629Z,15.60
2023-08-04T03:45:40.685Z,15.60
2023-08-04T03:48:07.829Z,15.60
2023-08-04T03:50:35.120Z,15.60
2023-08-04T03:53:02.310Z,15.60
2023-08-04T03:55:29.406Z,17.00
2023-08-04T03:57:56.413Z,15.60
2023-08-04T04:00:23.884Z,15.60
2023-08-04T04:02:51.373Z,15.50
2023-08-04T04:05:18.822Z,15.50
2023-08-04T04:07:45.947Z,15.50
2023-08-04T04:10:13.029Z,16.50
2023-08-04T04:12:40.055Z,15.60
2023-08-04T04:15:08.307Z,15.40
2023-08-04T04:17:36.975Z,15.40
2023-08-04T04:20:04.473Z,14.30
2023-08-04T04:22:31.887Z,15.40
2023-08-04T04:24:59.078Z,15.40
2023-08-04T04:27:26.531Z,14.70
2023-08-04T04:29:53.546Z,17.70
2023-08-04T04:32:20.601Z,16.00
2023-08-04T04:34:47.817Z,15.30
2023-08-04T04:37:14.848Z,15.30
2023-08-04T04:39:41.895Z,15.30
2023-08-04T04:42:08.926Z,16.60
2023-08-04T04:44:36.074Z,15.20
2023-08-04T04:47:03.308Z,16.40
2023-08-04T04:49:30.581Z,15.20
2023-08-04T04:51:57.692Z,16.10
2023-08-04T04:54:25.348Z,15.20
2023-08-04T04:56:52.944Z,15.20
2023-08-04T04:59:20.115Z,15.20
2023-08-04T05:01:47.307Z,16.10
2023-08-04T05:04:14.732Z,15.60
2023-08-04T05:06:41.817Z,15.20
2023-08-04T05:09:09.673Z,15.20
2023-08-04T05:11:36.845Z,17.60
2023-08-04T05:14:05.380Z,16.60
2023-08-04T05:16:32.749Z,16.60
2023-08-04T05:18:59.913Z,15.40
2023-08-04T05:21:26.975Z,15.50
2023-08-04T05:23:56.919Z,16.70
2023-08-04T05:26:23.951Z,15.70
2023-08-04T05:28:51.021Z,15.80
2023-08-04T05:31:23.864Z,16.00
2023-08-04T05:33:51.851Z,16.00
2023-08-04T05:36:18.837Z,16.70
2023-08-04T05:38:45.791Z,16.40
2023-08-04T05:41:12.899Z,16.50
2023-08-04T05:43:40.055Z,16.60
2023-08-04T05:46:07.636Z,16.70
2023-08-04T05:48:35.644Z,16.90
2023-08-04T05:51:02.902Z,18.00
2023-08-04T05:53:30.050Z,17.20
2023-08-04T05:55:57.077Z,17.30
2023-08-04T05:58:24.135Z,17.50
2023-08-04T06:00:51.370Z,18.30
2023-08-04T06:03:18.457Z,17.80
2023-08-04T06:05:45.525Z,18.00
2023-08-04T06:08:12.478Z,18.60
2023-08-04T06:10:40.254Z,19.30
2023-08-04T06:13:07.580Z,18.40
2023-08-04T06:15:35.300Z,18.50
2023-08-04T06:18:03.092Z,18.60
2023-08-04T06:20:30.644Z,18.70
2023-08-04T06:22:57.800Z,17.40
2023-08-04T06:25:25.029Z,18.80
2023-08-04T06:27:54.584Z,18.90
2023-08-04T06:30:21.875Z,19.00
2023-08-04T06:32:49.161Z,19.10
2023-08-04T06:35:16.637Z,19.70
2023-08-04T06:37:43.845Z,19.40
2023-08-04T06:40:11.678Z,19.50
2023-08-04T06:42:38.809Z,19.60
2023-08-04T06:45:08.023Z,19.80
2023-08-04T06:47:35.157Z,20.00
2023-08-04T06:50:02.298Z,20.30
2023-08-04T06:52:29.348Z,20.30
2023-08-04T06:54:56.430Z,20.40
2023-08-04T06:57:23.431Z,20.50
2023-08-04T06:59:50.558Z,20.60
2023-08-04T07:02:18.540Z,20.70
2023-08-04T07:04:45.585Z,20.80
2023-08-04T07:07:12.625Z,20.90
2023-08-04T07:09:39.565Z,21.00
2023-08-04T07:12:07.500Z,21.20
2023-08-04T07:14:34.593Z,21.30
2023-08-04T07:17:01.845Z,21.50
2023-08-04T07:19:28.874Z,21.70
2023-08-04T07:21:55.816Z,21.90
2023-08-04T07:24:23.807Z,22.10
2023-08-04T07:26:52.167Z,22.20
2023-08-04T07:29:19.221Z,22.30
2023-08-04T07:31:46.557Z,22.50
2023-08-04T07:34:13.720Z,22.60
2023-08-04T07:36:40.795Z,22.60
2023-08-04T07:39:07.734Z,22.70
2023-08-04T07:41:34.952Z,22.70
2023-08-04T07:44:02.063Z,24.30
2023-08-04T07:46:30.817Z,22.80
2023-08-04T07:48:58.345Z,22.80
2023-08-04T07:51:25.455Z,22.80
2023-08-04T07:53:52.680Z,22.90
2023-08-04T07:56:19.931Z,23.00
2023-08-04T07:58:48.881Z,22.90
2023-08-04T08:01:16.518Z,22.90
2023-08-04T08:03:44.725Z,22.90
2023-08-04T08:06:12.109Z,22.80
2023-08-04T08:08:39.290Z,22.80
2023-08-04T08:11:12.273Z,22.70
2023-08-04T08:13:39.915Z,22.70
2023-08-04T08:16:19.180Z,22.60
2023-08-04T08:18:47.331Z,22.60
2023-08-04T08:21:14.888Z,22.60
2023-08-04T08:23:42.735Z,22.60
2023-08-04T08:26:10.046Z,22.60
2023-08-04T08:28:37.026Z,22.70
2023-08-04T08:31:04.085Z,22.70
2023-08-04T08:33:31.326Z,22.70
2023-08-04T08:35:58.447Z,22.80
2023-08-04T08:38:25.530Z,22.90
2023-08-04T08:40:52.623Z,23.00
2023-08-04T08:43:19.759Z,23.00
2023-08-04T08:45:49.115Z,23.20
2023-08-04T08:48:17.720Z,23.30
2023-08-04T08:50:50.742Z,23.50
2023-08-04T08:53:24.573Z,23.50
2023-08-04T08:55:52.104Z,23.80
2023-08-04T08:58:20.376Z,23.90
2023-08-04T09:00:47.976Z,24.00
2023-08-04T09:03:15.542Z,24.00
2023-08-04T09:05:43.112Z,24.10
2023-08-04T09:08:10.134Z,24.20
2023-08-04T09:10:39.294Z,24.20
2023-08-04T09:13:10.272Z,24.20
2023-08-04T09:15:51.063Z,24.20
2023-08-04T09:18:40.148Z,24.20
2023-08-04T09:21:11.420Z,24.20
2023-08-04T09:23:42.632Z,24.30
2023-08-04T09:26:09.910Z,24.50
2023-08-04T09:28:37.166Z,24.60
2023-08-04T09:31:17.971Z,25.10
2023-08-04T09:33:46.144Z,25.10
2023-08-04T09:36:17.822Z,25.20
2023-08-04T09:38:45.967Z,25.20
2023-08-04T09:41:15.968Z,25.10
2023-08-04T09:43:50.839Z,25.00
2023-08-04T09:46:19.052Z,24.80
2023-08-04T09:48:47.685Z,24.60
2023-08-04T09:51:20.177Z,24.40
2023-08-04T09:53:50.021Z,24.20
2023-08-04T09:56:22.485Z,24.20
2023-08-04T09:58:50.283Z,24.20
2023-08-04T10:01:19.827Z,24.30
2023-08-04T10:03:58.832Z,24.50
2023-08-04T10:06:29.842Z,24.80
2023-08-04T10:08:57.008Z,25.10
2023-08-04T10:11:24.844Z,25.40
2023-08-04T10:13:56.137Z,25.60
2023-08-04T10:16:34.113Z,25.80
2023-08-04T10:19:06.354Z,26.00
2023-08-04T10:21:42.548Z,26.10
2023-08-04T10:24:12.476Z,26.20
2023-08-04T10:26:48.380Z,26.10
2023-08-04T10:29:16.772Z,26.10
2023-08-04T10:31:57.531Z,25.90
2023-08-04T10:34:34.847Z,25.60
2023-08-04T10:37:12.622Z,25.40
2023-08-04T10:39:45.014Z,25.30
2023-08-04T10:42:15.333Z,25.10
2023-08-04T10:45:10.408Z,25.10
2023-08-04T10:48:09.713Z,25.10
2023-08-04T10:50:35.572Z,25.30
2023-08-04T10:53:04.013Z,25.50
2023-08-04T10:55:31.211Z,25.80
2023-08-04T10:57:58.385Z,26.10
2023-08-04T11:00:25.547Z,26.30
2023-08-04T11:02:52.722Z,26.50
2023-08-04T11:05:24.007Z,26.60
2023-08-04T11:07:51.983Z,26.60
2023-08-04T11:10:18.973Z,26.50
2023-08-04T11:12:46.046Z,26.40
2023-08-04T11:15:13.100Z,26.30
2023-08-04T11:17:42.064Z,26.20
2023-08-04T11:22:50.195Z,26.00
2023-08-04T11:25:17.774Z,26.00
2023-08-04T11:27:46.978Z,26.00
2023-08-04T11:30:14.260Z,25.90
2023-08-04T11:32:41.421Z,25.70
2023-08-04T11:35:09.211Z,25.50
2023-08-04T11:37:36.279Z,25.20
2023-08-04T11:40:03.877Z,24.80
2023-08-04T11:42:31.190Z,24.60
2023-08-04T11:44:58.672Z,24.40
2023-08-04T11:47:26.960Z,24.40
2023-08-04T11:49:55.140Z,24.30
2023-08-04T11:52:24.272Z,24.40
2023-08-04T11:54:58.443Z,24.50
2023-08-04T11:57:27.353Z,24.80
2023-08-04T11:59:54.373Z,24.70
2023-08-04T12:02:22.935Z,24.70
2023-08-04T12:05:12.441Z,24.70
2023-08-04T12:07:39.980Z,24.70
2023-08-04T12:10:15.293Z,24.70
2023-08-04T12:12:43.024Z,24.80
2023-08-04T12:15:10.168Z,24.90
2023-08-04T12:17:42.817Z,25.10
2023-08-04T12:20:12.727Z,25.90
2023-08-04T12:22:43.197Z,25.60
2023-08-04T12:25:11.194Z,25.90
2023-08-04T12:27:38.227Z,26.30
2023-08-04T12:30:06.429Z,26.60
2023-08-04T12:32:33.482Z,26.90
2023-08-04T12:35:00.564Z,27.10
2023-08-04T12:37:27.664Z,27.30
2023-08-04T12:39:57.202Z,27.50
2023-08-04T12:42:25.306Z,27.60
2023-08-04T12:44:52.634Z,27.60
2023-08-04T12:47:19.642Z,27.70
2023-08-04T12:49:46.808Z,27.80
2023-08-04T12:52:14.004Z,27.80
2023-08-04T12:54:41.131Z,27.90
2023-08-04T12:57:10.389Z,27.90
2023-08-04T12:59:38.418Z,27.70
2023-08-04T13:02:07.054Z,27.20
2023-08-04T13:04:35.139Z,26.60
2023-08-04T13:07:02.601Z,25.80
2023-08-04T13:09:29.583Z,25.10
2023-08-04T13:11:57.714Z,24.50
2023-08-04T13:14:24.781Z,23.80
2023-08-04T13:16:51.952Z,23.40
2023-08-04T13:19:18.928Z,23.00
2023-08-04T13:21:46.229Z,22.80
2023-08-04T13:24:13.736Z,22.60
2023-08-04T13:26:43.356Z,22.50
2023-08-04T13:29:10.778Z,22.50
2023-08-04T13:31:37.868Z,22.60
2023-08-04T13:34:07.103Z,22.60
2023-08-04T13:36:35.957Z,22.70
2023-08-04T13:39:02.899Z,22.80
2023-08-04T13:41:30.150Z,22.80
2023-08-04T13:43:57.202Z,23.00
2023-08-04T13:46:24.280Z,23.20
2023-08-04T13:48:51.417Z,23.30
2023-08-04T13:51:26.837Z,23.40
2023-08-04T13:53:56.516Z,23.40
2023-08-04T13:56:23.569Z,23.20
2023-08-04T13:58:52.116Z,23.20
2023-08-04T14:01:19.567Z,23.00
2023-08-04T14:03:46.646Z,23.00
2023-08-04T14:06:13.711Z,23.10
2023-08-04T14:08:40.932Z,23.30
2023-08-04T14:11:07.954Z,23.50
2023-08-04T14:13:34.922Z,23.70
2023-08-04T14:16:10.704Z,23.90
2023-08-04T14:18:38.272Z,23.90
2023-08-04T14:21:05.443Z,24.10
2023-08-04T14:23:32.516Z,24.30
2023-08-04T14:26:00.344Z,24.50
2023-08-04T14:28:27.456Z,24.80
2023-08-04T14:30:55.949Z,25.10
2023-08-04T14:33:23.112Z,25.20
2023-08-04T14:35:50.931Z,25.30
2023-08-04T14:38:18.037Z,25.20
2023-08-04T14:40:45.232Z,25.10
2023-08-04T14:43:12.396Z,24.90
2023-08-04T14:45:39.559Z,24.80
2023-08-04T14:48:06.900Z,24.50
2023-08-04T14:50:39.308Z,24.30
2023-08-04T14:53:06.417Z,24.30
2023-08-04T14:55:37.361Z,23.90
2023-08-04T14:58:06.379Z,23.70
2023-08-04T15:00:34.594Z,23.50
2023-08-04T15:03:01.989Z,23.40
2023-08-04T15:05:37.417Z,23.40
2023-08-04T15:08:04.672Z,23.20
2023-08-04T15:10:34.874Z,23.10
2023-08-04T15:13:02.260Z,23.10
2023-08-04T15:15:29.354Z,23.00
2023-08-04T15:17:57.802Z,23.00
2023-08-04T15:20:25.110Z,23.20
2023-08-04T15:22:52.361Z,23.50
2023-08-04T15:25:19.405Z,24.00
2023-08-04T15:27:46.477Z,24.40
2023-08-04T15:30:13.653Z,24.90
2023-08-04T15:32:40.830Z,25.60
2023-08-04T15:35:08.439Z,26.10
2023-08-04T15:37:35.386Z,26.60
2023-08-04T15:40:02.524Z,27.00
2023-08-04T15:42:29.599Z,27.40
2023-08-04T15:44:56.560Z,27.70
2023-08-04T15:47:23.514Z,27.90
2023-08-04T15:49:50.629Z,28.00
2023-08-04T15:52:17.696Z,27.90
2023-08-04T15:54:45.866Z,27.70
2023-08-04T15:57:14.038Z,27.40
2023-08-04T15:59:40.990Z,27.20
2023-08-04T16:02:08.536Z,26.90
2023-08-04T16:04:35.541Z,26.70
2023-08-04T16:07:02.832Z,26.50
2023-08-04T16:09:29.801Z,26.40
2023-08-04T16:11:56.934Z,26.20
2023-08-04T16:14:23.976Z,26.10
2023-08-04T16:16:51.255Z,26.00
2023-08-04T16:19:18.489Z,25.90
2023-08-04T16:21:45.522Z,25.90
2023-08-04T16:24:12.503Z,25.70
2023-08-04T16:26:41.926Z,25.70
2023-08-04T16:29:09.102Z,25.60
2023-08-04T16:31:36.100Z,25.60
2023-08-04T16:34:04.508Z,25.60
2023-08-04T16:36:31.671Z,25.60
2023-08-04T16:38:58.669Z,25.60
2023-08-04T16:41:26.795Z,25.60
2023-08-04T16:43:53.960Z,25.60
2023-08-04T16:46:21.256Z,25.60
2023-08-04T16:48:50.178Z,25.60
2023-08-04T16:51:17.380Z,25.60
2023-08-04T16:53:44.310Z,25.60
2023-08-04T16:56:11.368Z,25.70
2023-08-04T16:58:38.345Z,25.90
2023-08-04T17:01:05.379Z,26.10
2023-08-04T17:03:32.563Z,26.00
2023-08-04T17:05:59.553Z,26.40
2023-08-04T17:08:26.489Z,26.60
2023-08-04T17:10:53.510Z,26.50
2023-08-04T17:13:20.454Z,26.50
2023-08-04T17:15:47.534Z,26.40
2023-08-04T17:18:14.597Z,26.30
2023-08-04T17:20:42.611Z,26.20
2023-08-04T17:23:09.666Z,26.10
2023-08-04T17:25:36.718Z,25.90
2023-08-04T17:28:03.864Z,25.70
2023-08-04T17:30:30.875Z,25.50
2023-08-04T17:32:58.429Z,25.30
2023-08-04T17:35:25.534Z,25.10
2023-08-04T17:37:52.665Z,25.00
2023-08-04T17:40:20.543Z,24.80
2023-08-04T17:42:48.083Z,24.80
2023-08-04T17:45:15.324Z,24.60
2023-08-04T17:47:42.762Z,24.50
2023-08-04T17:50:10.415Z,24.40
2023-08-04T17:52:37.430Z,24.50
2023-08-04T17:55:05.156Z,24.60
2023-08-04T17:57:32.160Z,24.80
2023-08-04T17:59:59.275Z,25.00
2023-08-04T18:02:26.315Z,25.20
2023-08-04T18:04:53.409Z,25.30
2023-08-04T18:07:20.539Z,25.50
2023-08-04T18:09:50.562Z,25.60
2023-08-04T18:12:17.549Z,25.70
2023-08-04T18:14:44.471Z,25.80
2023-08-04T18:17:11.545Z,25.80
2023-08-04T18:19:38.550Z,25.80
2023-08-04T18:22:08.588Z,25.90
2023-08-04T18:24:36.289Z,25.90
2023-08-04T18:27:03.238Z,25.90
2023-08-04T18:29:30.208Z,25.70
2023-08-04T18:31:57.249Z,25.60
2023-08-04T18:34:24.384Z,25.30
2023-08-04T18:36:53.962Z,24.90
2023-08-04T18:39:21.498Z,24.60
2023-08-04T18:41:48.802Z,24.20
2023-08-04T18:44:15.842Z,23.90
2023-08-04T18:46:42.956Z,23.70
2023-08-04T18:49:10.053Z,23.50
2023-08-04T18:51:36.970Z,23.30
2023-08-04T18:54:04.079Z,23.20
2023-08-04T18:56:31.036Z,23.10
2023-08-04T18:58:58.184Z,23.10
2023-08-04T19:01:25.648Z,23.00
2023-08-04T19:03:52.839Z,23.00
2023-08-04T19:06:20.106Z,22.90
2023-08-04T19:08:47.225Z,22.80
2023-08-04T19:11:14.343Z,22.60
2023-08-04T19:13:41.302Z,22.50
2023-08-04T19:16:09.174Z,22.20
2023-08-04T19:18:36.278Z,22.00
2023-08-04T19:21:03.318Z,22.30
2023-08-04T19:23:30.449Z,21.60
2023-08-04T19:25:57.590Z,21.40
2023-08-04T19:28:24.572Z,21.70
2023-08-04T19:30:51.694Z,21.00
2023-08-04T19:33:20.315Z,20.80
2023-08-04T19:35:47.346Z,20.60
2023-08-04T19:38:14.285Z,22.20
2023-08-04T19:40:41.288Z,20.30
2023-08-04T19:43:08.478Z,20.30
2023-08-04T19:45:35.743Z,20.20
2023-08-04T19:48:04.218Z,19.90
2023-08-04T19:50:31.768Z,19.70
2023-08-04T19:52:58.840Z,19.60
2023-08-04T19:55:40.254Z,19.50
2023-08-04T19:58:13.591Z,20.40
2023-08-04T20:00:44.294Z,19.30
2023-08-04T20:03:16.532Z,19.30
2023-08-04T20:05:43.498Z,19.80
2023-08-04T20:08:10.478Z,19.00
2023-08-04T20:10:37.707Z,19.60
2023-08-04T20:13:04.890Z,18.80
2023-08-04T20:15:32.270Z,18.70
2023-08-04T20:18:01.169Z,18.60
2023-08-04T20:20:28.541Z,18.50
2023-08-04T20:22:55.493Z,18.40
2023-08-04T20:25:22.602Z,19.30
2023-08-04T20:27:49.545Z,18.30
2023-08-04T20:30:16.706Z,18.20
2023-08-04T20:32:43.728Z,18.10
2023-08-04T20:35:10.783Z,18.10
2023-08-04T20:37:37.727Z,18.00
2023-08-04T20:40:05.808Z,20.00
2023-08-04T20:42:35.861Z,17.90
2023-08-04T20:45:04.941Z,18.40
2023-08-04T20:48:09.999Z,17.70
2023-08-04T20:50:37.064Z,17.70
2023-08-04T20:53:04.094Z,17.60
2023-08-04T20:55:31.143Z,17.50
2023-08-04T20:57:58.142Z,17.40
2023-08-04T21:00:27.387Z,17.30
2023-08-04T21:02:54.735Z,15.70
2023-08-04T21:05:21.875Z,17.30
2023-08-04T21:07:48.986Z,17.20
2023-08-04T21:10:16.107Z,18.00
2023-08-04T21:12:43.187Z,17.10
2023-08-04T21:15:12.372Z,17.90
2023-08-04T21:17:39.625Z,17.00
2023-08-04T21:20:07.998Z,19.10
2023-08-04T21:22:35.589Z,16.90
2023-08-04T21:25:04.434Z,16.80
2023-08-04T21:27:31.416Z,18.40
2023-08-04T21:29:58.369Z,16.80
2023-08-04T21:32:25.364Z,16.80
2023-08-04T21:34:52.361Z,16.70
2023-08-04T21:37:19.483Z,16.60
2023-08-04T21:39:46.496Z,16.60
2023-08-04T21:42:13.581Z,16.50
2023-08-04T21:44:40.520Z,17.20
2023-08-04T21:47:07.793Z,16.50
2023-08-04T21:49:34.829Z,16.40
2023-08-04T21:52:01.859Z,17.50
2023-08-04T21:54:30.399Z,17.90
2023-08-04T21:56:57.376Z,16.30
2023-08-04T21:59:24.330Z,17.90
2023-08-04T22:01:51.604Z,17.10
2023-08-04T22:04:18.598Z,16.20
2023-08-04T22:06:45.778Z,16.20
2023-08-04T22:09:12.756Z,16.10
2023-08-04T22:11:39.803Z,16.80
2023-08-04T22:14:06.766Z,16.00
2023-08-04T22:16:33.911Z,16.00
2023-08-04T22:19:01.042Z,16.10
2023-08-04T22:21:28.172Z,17.40
2023-08-04T22:23:55.178Z,16.00
2023-08-04T22:26:22.120Z,16.00
2023-08-04T22:28:49.051Z,18.00
2023-08-04T22:31:16.143Z,17.10
2023-08-04T22:33:43.186Z,18.10
2023-08-04T22:36:13.090Z,16.00
2023-08-04T22:38:40.297Z,16.10
2023-08-04T22:41:07.479Z,16.20
2023-08-04T22:43:34.645Z,16.00
2023-08-04T22:46:04.883Z,16.20
2023-08-04T22:48:32.678Z,16.10
2023-08-04T22:50:59.813Z,16.10
2023-08-04T22:53:29.543Z,17.00
2023-08-04T22:56:00.578Z,16.40
2023-08-04T22:58:27.582Z,17.90
2023-08-04T23:00:54.684Z,17.60
2023-08-04T23:03:21.843Z,16.00
2023-08-04T23:05:48.848Z,16.00
2023-08-04T23:08:15.874Z,16.00
2023-08-04T23:10:43.921Z,15.90
2023-08-04T23:13:10.912Z,17.70
2023-08-04T23:15:40.923Z,16.00
2023-08-04T23:18:08.007Z,15.80
2023-08-04T23:20:35.129Z,15.80
2023-08-04T23:23:02.144Z,15.70
2023-08-04T23:25:29.236Z,15.70
2023-08-04T23:27:56.215Z,15.70
2023-08-04T23:30:23.315Z,15.80
2023-08-04T23:32:50.482Z,15.70
2023-08-04T23:35:17.678Z,15.60
2023-08-04T23:37:45.187Z,16.30
2023-08-04T23:40:12.591Z,15.60
2023-08-04T23:42:39.566Z,15.60
2023-08-04T23:45:07.271Z,17.20
2023-08-04T23:47:34.251Z,15.60
2023-08-04T23:50:01.271Z,15.70
2023-08-04T23:52:28.206Z,15.70
2023-08-04T23:54:55.208Z,16.90
2023-08-04T23:57:22.341Z,15.80
2023-08-04T23:59:49.329Z,15.90
